Time;durP1;ratioP1;P1;durP2;ratioP2;P2;SDS_P1;SDS_P2;PMS_P1;PMS_P2;Temp;Humidity;BMP_temperature;BMP_pressure;BME280_temperature;BME280_humidity;BME280_pressure;Samples;Min_cycle;Max_cycle;Signal;HPM_P1;HPM_P2
2023/05/02 00:01:57;;;;;;;10.13;5.75;;;23.30;40.20;;;;;;7641836;22;80247;-65
2023/05/02 00:04:58;;;;;;;11.65;6.03;;;23.30;40.20;;;;;;7641593;22;81266;-67
2023/05/02 00:07:58;;;;;;;9.63;5.55;;;23.30;40.20;;;;;;7641431;22;80453;-67
2023/05/02 00:10:59;;;;;;;9.93;5.80;;;23.30;40.20;;;;;;7642364;22;81155;-67
2023/05/02 00:13:59;;;;;;;12.45;5.85;;;23.30;40.20;;;;;;7642246;22;80417;-67
2023/05/02 00:17:00;;;;;;;11.18;5.88;;;23.30;40.20;;;;;;7642860;22;80276;-65
2023/05/02 00:20:00;;;;;;;7.90;5.50;;;23.30;40.30;;;;;;7642610;22;80318;-56
2023/05/02 00:23:01;;;;;;;8.90;5.53;;;23.30;40.30;;;;;;7642891;22;80789;-56
2023/05/02 00:26:01;;;;;;;8.20;5.25;;;23.30;40.30;;;;;;7642842;22;81335;-55
2023/05/02 00:29:02;;;;;;;9.90;5.70;;;23.30;40.30;;;;;;7642130;22;81024;-57
2023/05/02 00:32:02;;;;;;;11.18;5.72;;;23.20;40.30;;;;;;7641696;22;80205;-58
2023/05/02 00:35:03;;;;;;;9.32;5.47;;;23.20;40.40;;;;;;7614692;22;83459;-57
2023/05/02 00:38:04;;;;;;;9.77;5.68;;;23.20;40.40;;;;;;7642115;22;80224;-58
2023/05/02 00:41:05;;;;;;;9.50;5.45;;;23.20;40.40;;;;;;7640751;22;80214;-56
2023/05/02 00:44:06;;;;;;;9.27;5.70;;;23.20;40.40;;;;;;7614955;22;81297;-57
2023/05/02 00:47:06;;;;;;;8.65;5.13;;;23.20;40.40;;;;;;7614086;22;81771;-57
2023/05/02 00:50:07;;;;;;;9.43;5.28;;;23.20;40.40;;;;;;7614480;22;83092;-57
2023/05/02 00:53:07;;;;;;;9.98;6.05;;;23.20;40.40;;;;;;7641285;22;80673;-58
2023/05/02 00:56:08;;;;;;;10.75;5.70;;;23.20;40.40;;;;;;7613991;22;82815;-57
2023/05/02 01:09:57;;;;;;;6.80;4.68;;;23.30;40.50;;;;;;7594700;22;80499;-56
2023/05/02 01:12:58;;;;;;;8.35;5.03;;;23.30;40.40;;;;;;7605412;23;80234;-57
2023/05/02 01:15:59;;;;;;;8.35;4.97;;;23.30;40.50;;;;;;7604234;23;81815;-68
2023/05/02 01:19:00;;;;;;;7.70;5.13;;;23.30;40.40;;;;;;7577640;23;80847;-65
2023/05/02 01:22:00;;;;;;;8.23;5.40;;;23.20;40.40;;;;;;7604595;23;80083;-69
2023/05/02 01:25:01;;;;;;;8.40;5.75;;;23.30;40.50;;;;;;7606269;23;80599;-68
2023/05/02 01:28:02;;;;;;;11.05;5.40;;;23.20;40.40;;;;;;7604607;23;81026;-67
2023/05/02 01:31:02;;;;;;;8.90;5.60;;;23.20;40.40;;;;;;7577371;23;80488;-68
2023/05/02 01:34:03;;;;;;;7.25;5.13;;;23.20;40.40;;;;;;7605236;23;80384;-56
2023/05/02 01:37:03;;;;;;;7.65;4.88;;;23.20;40.40;;;;;;7604619;23;80294;-57
2023/05/02 01:40:04;;;;;;;8.23;5.40;;;23.20;40.40;;;;;;7579137;23;82020;-57
2023/05/02 01:43:04;;;;;;;7.40;4.47;;;23.20;40.40;;;;;;7600710;23;80872;-57
2023/05/02 01:46:05;;;;;;;7.43;5.45;;;23.30;40.40;;;;;;7606564;23;80684;-57
2023/05/02 01:49:05;;;;;;;7.72;5.15;;;23.30;40.40;;;;;;7574964;23;83151;-56
2023/05/02 01:52:06;;;;;;;9.15;5.13;;;23.30;40.40;;;;;;7604995;23;80497;-57
2023/05/02 01:55:07;;;;;;;8.32;5.32;;;23.30;40.50;;;;;;7605653;23;80942;-57
2023/05/02 01:58:07;;;;;;;7.68;5.13;;;23.30;40.40;;;;;;7601195;23;80505;-56
2023/05/02 02:01:08;;;;;;;9.38;5.75;;;23.30;40.60;;;;;;7578482;23;83450;-57
2023/05/02 02:04:08;;;;;;;10.45;5.43;;;23.20;40.50;;;;;;7578475;23;83039;-57
2023/05/02 02:07:09;;;;;;;8.25;5.28;;;23.20;40.50;;;;;;7603775;23;80460;-56
2023/05/02 02:10:10;;;;;;;11.75;5.75;;;23.20;40.60;;;;;;7605124;23;81936;-56
2023/05/02 02:13:10;;;;;;;8.43;5.07;;;23.20;40.60;;;;;;7605185;23;80414;-55
2023/05/02 02:16:11;;;;;;;8.30;5.32;;;23.20;40.60;;;;;;7578441;23;83616;-57
2023/05/02 02:19:11;;;;;;;9.73;5.15;;;23.20;40.70;;;;;;7605305;23;80264;-55
2023/05/02 02:22:12;;;;;;;11.52;6.18;;;23.20;40.90;;;;;;7579279;23;81359;-56
2023/05/02 02:25:12;;;;;;;8.88;5.38;;;23.20;40.70;;;;;;7579538;23;83483;-57
2023/05/02 02:28:13;;;;;;;7.28;5.57;;;23.20;40.70;;;;;;7554479;23;83233;-56
2023/05/02 02:31:13;;;;;;;8.55;5.40;;;23.20;40.80;;;;;;7603183;23;81073;-57
2023/05/02 02:34:14;;;;;;;11.60;6.13;;;23.20;40.60;;;;;;7606123;23;80253;-56
2023/05/02 02:37:14;;;;;;;8.70;5.30;;;23.20;40.60;;;;;;7604223;23;80568;-56
2023/05/02 02:40:15;;;;;;;9.55;5.68;;;23.20;40.70;;;;;;7604206;23;80664;-57
2023/05/02 02:43:16;;;;;;;11.95;5.35;;;23.20;40.70;;;;;;7578737;23;83419;-57
2023/05/02 02:46:16;;;;;;;12.07;5.55;;;23.20;40.80;;;;;;7606307;23;81299;-58
2023/05/02 02:49:17;;;;;;;10.77;5.65;;;23.10;40.70;;;;;;7605213;23;80335;-66
2023/05/02 02:52:18;;;;;;;7.82;5.28;;;23.10;40.70;;;;;;7605300;23;80151;-66
2023/05/02 02:55:18;;;;;;;8.38;5.15;;;23.10;40.70;;;;;;7606260;23;80941;-66
2023/05/02 02:58:19;;;;;;;9.25;5.47;;;23.10;40.70;;;;;;7605062;23;80221;-69
2023/05/02 03:01:20;;;;;;;8.60;5.65;;;23.10;40.70;;;;;;7604911;23;80347;-67
2023/05/02 03:04:20;;;;;;;8.48;4.90;;;23.10;40.70;;;;;;7605985;23;80794;-67
2023/05/02 03:07:21;;;;;;;6.78;4.82;;;23.10;40.70;;;;;;7604618;23;80270;-67
2023/05/02 03:10:22;;;;;;;11.25;4.60;;;23.10;40.70;;;;;;7578932;23;82951;-68
2023/05/02 03:13:23;;;;;;;8.80;5.65;;;23.10;40.70;;;;;;7579111;23;82715;-67
2023/05/02 03:16:23;;;;;;;7.38;5.20;;;23.10;40.70;;;;;;7579538;23;87645;-67
2023/05/02 03:19:24;;;;;;;9.95;5.80;;;23.10;40.70;;;;;;7579454;23;83895;-66
2023/05/02 03:22:25;;;;;;;8.10;4.82;;;23.10;40.70;;;;;;7577873;23;82480;-67
2023/05/02 03:25:25;;;;;;;7.10;5.00;;;23.10;40.70;;;;;;7578360;23;81409;-54
2023/05/02 03:28:26;;;;;;;8.88;5.43;;;23.20;40.70;;;;;;7580160;23;82583;-56
2023/05/02 03:31:27;;;;;;;8.52;5.75;;;23.10;40.60;;;;;;7578477;23;83084;-57
2023/05/02 03:34:28;;;;;;;7.93;5.65;;;23.10;40.70;;;;;;7578113;23;80601;-57
2023/05/02 03:37:29;;;;;;;8.98;5.90;;;23.10;40.70;;;;;;7578508;23;83066;-58
2023/05/02 03:40:32;;;;;;;9.77;5.72;;;23.10;40.80;;;;;;7605907;23;81640;-55
2023/05/02 03:43:33;;;;;;;8.90;5.43;;;23.10;40.80;;;;;;7604997;23;81084;-54
2023/05/02 03:46:33;;;;;;;11.38;6.45;;;23.10;40.80;;;;;;7578424;23;82937;-56
2023/05/02 03:49:36;;;;;;;8.55;5.55;;;23.10;40.80;;;;;;7578824;23;82279;-57
2023/05/02 03:52:37;;;;;;;11.05;6.45;;;23.10;40.80;;;;;;7577850;23;82925;-56
2023/05/02 03:55:37;;;;;;;15.02;6.35;;;23.10;40.80;;;;;;7604974;23;80836;-56
2023/05/02 03:58:38;;;;;;;9.45;5.72;;;23.10;40.80;;;;;;7604925;23;87309;-56
2023/05/02 04:01:39;;;;;;;10.82;6.00;;;23.10;40.80;;;;;;7578127;23;83295;-58
2023/05/02 04:04:41;;;;;;;8.52;5.57;;;23.10;40.70;;;;;;7578192;23;82441;-58
2023/05/02 04:07:44;;;;;;;12.23;6.00;;;23.10;40.70;;;;;;7578549;23;81663;-57
2023/05/02 04:10:44;;;;;;;9.35;5.25;;;23.10;40.80;;;;;;7578006;23;83224;-58
2023/05/02 04:13:46;;;;;;;8.88;5.40;;;23.10;40.80;;;;;;7578078;23;83151;-57
2023/05/02 04:16:46;;;;;;;9.95;5.75;;;23.10;40.80;;;;;;7604761;23;80459;-58
2023/05/02 04:19:47;;;;;;;7.95;5.22;;;23.10;41.50;;;;;;7605753;23;81344;-67
2023/05/02 04:22:49;;;;;;;8.35;5.38;;;23.10;40.90;;;;;;7575970;23;82589;-67
2023/05/02 04:25:51;;;;;;;11.77;6.13;;;23.10;40.90;;;;;;7577719;23;82472;-69
2023/05/02 04:28:52;;;;;;;9.10;5.32;;;23.10;40.90;;;;;;7578013;23;82220;-69
2023/05/02 04:31:53;;;;;;;10.73;6.15;;;23.10;41.00;;;;;;7574061;23;83657;-69
2023/05/02 04:34:55;;;;;;;12.15;6.32;;;23.10;41.10;;;;;;7578892;23;82976;-70
2023/05/02 04:37:56;;;;;;;10.68;6.38;;;23.10;41.10;;;;;;7578056;23;82691;-69
2023/05/02 04:40:57;;;;;;;10.73;5.65;;;23.10;41.00;;;;;;7578336;23;82826;-70
2023/05/02 04:44:09;;;;;;;10.48;6.07;;;23.10;41.10;;;;;;7578151;23;81225;-71
2023/05/02 04:47:11;;;;;;;12.52;5.80;;;23.20;41.10;;;;;;7578347;23;82296;-70
2023/05/02 04:50:12;;;;;;;11.23;6.03;;;23.10;41.20;;;;;;7578241;23;83065;-71
2023/05/02 04:53:12;;;;;;;12.35;6.75;;;23.10;41.00;;;;;;7571745;23;83481;-69
2023/05/02 04:56:13;;;;;;;15.02;6.78;;;23.10;41.00;;;;;;7605704;23;81138;-60
2023/05/02 04:59:14;;;;;;;17.33;7.38;;;23.10;41.00;;;;;;7603427;23;84438;-61
2023/05/02 05:02:14;;;;;;;11.65;5.78;;;23.10;41.00;;;;;;7605118;23;80275;-60
2023/05/02 05:05:15;;;;;;;10.63;6.07;;;23.20;40.80;;;;;;7575759;23;81672;-61
2023/05/02 05:08:15;;;;;;;10.93;6.05;;;23.20;40.70;;;;;;7577596;23;83294;-61
2023/05/02 05:11:16;;;;;;;13.13;6.25;;;23.20;40.70;;;;;;7575941;23;83383;-60
2023/05/02 05:14:16;;;;;;;9.25;5.45;;;23.20;40.70;;;;;;7572857;23;82924;-61
2023/05/02 05:17:21;;;;;;;10.18;5.32;;;23.20;40.50;;;;;;7576850;23;81629;-63
2023/05/02 05:20:22;;;;;;;12.95;6.03;;;23.20;40.50;;;;;;7577636;23;82675;-62
2023/05/02 05:23:25;;;;;;;8.20;5.28;;;23.10;40.40;;;;;;7577463;23;81407;-62
2023/05/02 05:26:26;;;;;;;6.80;4.90;;;23.20;40.30;;;;;;7577364;23;81658;-63
2023/05/02 05:29:27;;;;;;;7.57;4.07;;;23.20;40.20;;;;;;7570127;23;83201;-62
2023/05/02 05:32:28;;;;;;;6.95;4.13;;;23.20;39.90;;;;;;7577016;23;82918;-68
2023/05/02 05:35:30;;;;;;;9.45;4.40;;;23.10;39.90;;;;;;7575180;23;83265;-70
2023/05/02 05:38:33;;;;;;;6.22;3.63;;;23.20;39.90;;;;;;7570945;23;83030;-67
2023/05/02 05:41:34;;;;;;;6.35;3.75;;;23.10;39.70;;;;;;7576370;23;83144;-68
2023/05/02 05:44:38;;;;;;;5.18;3.70;;;23.20;39.70;;;;;;7575761;23;82581;-69
2023/05/02 05:47:39;;;;;;;6.25;3.45;;;23.20;39.60;;;;;;7575930;23;83341;-71
2023/05/02 05:50:40;;;;;;;8.27;3.88;;;23.20;39.60;;;;;;7575391;23;83978;-63
2023/05/02 05:53:40;;;;;;;6.97;3.75;;;23.20;39.40;;;;;;7575738;23;81645;-62
2023/05/02 05:56:43;;;;;;;5.93;3.38;;;23.20;39.30;;;;;;7574142;23;88023;-63
2023/05/02 05:59:48;;;;;;;4.88;3.28;;;23.20;39.20;;;;;;7572491;23;83136;-61
2023/05/02 06:02:49;;;;;;;4.90;2.95;;;23.30;39.20;;;;;;7575692;23;82285;-61
2023/05/02 06:05:59;;;;;;;5.32;3.22;;;23.30;39.20;;;;;;7574884;23;83363;-59
2023/05/02 06:09:00;;;;;;;8.00;2.83;;;23.30;39.30;;;;;;7576081;23;83631;-64
2023/05/02 06:12:01;;;;;;;5.47;2.85;;;23.30;39.20;;;;;;7567563;23;80766;-58
2023/05/02 06:15:04;;;;;;;5.95;3.03;;;23.30;39.10;;;;;;7572225;23;83283;-60
2023/05/02 06:18:07;;;;;;;4.97;2.83;;;23.40;39.10;;;;;;7552826;23;83281;-64
2023/05/02 06:21:09;;;;;;;4.10;2.90;;;23.40;39.10;;;;;;7571677;23;83225;-63
2023/05/02 06:24:09;;;;;;;4.30;3.17;;;23.50;39.20;;;;;;7606022;23;80571;-62
2023/05/02 06:27:10;;;;;;;4.20;2.60;;;23.50;39.00;;;;;;7575957;23;82022;-58
2023/05/02 06:30:11;;;;;;;3.85;2.53;;;23.50;38.60;;;;;;7606875;23;80536;-58
2023/05/02 06:33:11;;;;;;;3.13;2.45;;;23.50;38.30;;;;;;7607787;23;79882;-60
2023/05/02 06:36:12;;;;;;;3.80;2.25;;;23.50;38.10;;;;;;7606567;23;80956;-62
2023/05/02 06:39:12;;;;;;;3.42;2.28;;;23.50;38.10;;;;;;7605901;23;80565;-60
2023/05/02 06:42:13;;;;;;;3.45;2.15;;;23.50;37.60;;;;;;7602180;23;83234;-57
2023/05/02 06:45:13;;;;;;;3.95;2.40;;;23.50;37.60;;;;;;7608436;23;80515;-60
2023/05/02 06:48:14;;;;;;;3.55;2.22;;;23.50;37.20;;;;;;7608276;23;81000;-68
2023/05/02 06:51:15;;;;;;;4.03;2.13;;;23.50;37.50;;;;;;7605315;23;80231;-68
2023/05/02 06:54:15;;;;;;;5.47;2.15;;;23.50;37.30;;;;;;7605648;23;80721;-65
2023/05/02 06:57:16;;;;;;;2.80;2.15;;;23.60;37.40;;;;;;7607652;23;80276;-63
2023/05/02 07:00:16;;;;;;;3.65;2.20;;;23.60;37.20;;;;;;7601234;23;81047;-61
2023/05/02 07:03:17;;;;;;;4.43;2.53;;;23.60;37.10;;;;;;7603935;23;80776;-65
2023/05/02 07:06:17;;;;;;;2.95;2.20;;;23.60;37.10;;;;;;7607386;23;80504;-63
2023/05/02 07:09:18;;;;;;;4.20;2.55;;;23.60;37.00;;;;;;7599988;23;80688;-63
2023/05/02 07:12:18;;;;;;;6.93;2.50;;;23.60;37.00;;;;;;7604799;23;80326;-63
2023/05/02 07:15:19;;;;;;;3.78;2.20;;;23.60;37.10;;;;;;7600568;23;80372;-62
2023/05/02 07:18:20;;;;;;;4.30;2.47;;;23.60;37.00;;;;;;7606650;23;80565;-61
2023/05/02 07:21:20;;;;;;;3.65;2.00;;;23.60;36.90;;;;;;7607969;23;80141;-66
2023/05/02 07:24:21;;;;;;;5.97;2.45;;;23.60;37.00;;;;;;7602010;23;80315;-56
2023/05/02 07:27:21;;;;;;;3.35;1.80;;;23.60;36.90;;;;;;7581035;23;83781;-49
2023/05/02 07:30:22;;;;;;;2.22;1.80;;;23.60;36.80;;;;;;7601068;23;81915;-55
2023/05/02 07:33:23;;;;;;;3.30;2.22;;;23.60;36.80;;;;;;7606643;23;81166;-59
2023/05/02 07:36:23;;;;;;;5.15;2.20;;;23.60;36.80;;;;;;7608098;23;80579;-54
2023/05/02 07:39:24;;;;;;;3.75;2.35;;;23.60;36.90;;;;;;7599556;23;80935;-56
2023/05/02 07:42:24;;;;;;;5.68;2.80;;;23.60;37.60;;;;;;7606948;23;80410;-51
2023/05/02 07:45:25;;;;;;;3.00;2.03;;;23.60;37.00;;;;;;7607024;23;80284;-58
2023/05/02 07:48:25;;;;;;;2.72;2.00;;;23.60;37.10;;;;;;7606378;23;80546;-58
2023/05/02 07:51:26;;;;;;;3.90;2.30;;;23.60;37.20;;;;;;7606973;23;80682;-57
2023/05/02 07:54:27;;;;;;;3.90;2.25;;;23.60;37.20;;;;;;7603862;23;80828;-57
2023/05/02 07:57:27;;;;;;;2.97;2.10;;;23.60;37.40;;;;;;7607766;23;81429;-52
2023/05/02 08:00:29;;;;;;;7.07;2.22;;;23.60;37.40;;;;;;7607014;23;80939;-59
2023/05/02 08:03:29;;;;;;;4.95;2.65;;;23.60;37.50;;;;;;7605782;23;80582;-59
2023/05/02 08:24:57;;;;;;;5.82;2.85;;;23.30;39.00;;;;;;7577965;22;81540;-60
2023/05/02 08:27:57;;;;;;;3.92;2.67;;;23.20;39.30;;;;;;7568315;23;80366;-61
2023/05/02 08:30:58;;;;;;;10.02;3.80;;;22.80;39.80;;;;;;7543215;23;83717;-59
2023/05/02 08:33:58;;;;;;;5.28;2.63;;;22.20;41.10;;;;;;7569620;23;87317;-59
2023/05/02 08:36:59;;;;;;;4.57;3.00;;;22.00;42.10;;;;;;7567299;23;81203;-67
2023/05/02 08:39:59;;;;;;;4.63;2.97;;;21.70;42.80;;;;;;7570113;23;80098;-63
2023/05/02 08:43:01;;;;;;;4.65;3.03;;;21.60;43.10;;;;;;7569715;23;80852;-60
2023/05/02 08:46:01;;;;;;;4.97;3.13;;;21.50;43.50;;;;;;7569272;23;80425;-64
2023/05/02 08:49:02;;;;;;;8.55;3.78;;;21.60;43.80;;;;;;7568432;23;80396;-63
2023/05/02 08:52:04;;;;;;;8.75;4.53;;;21.70;43.90;;;;;;7565155;23;81215;-65
2023/05/02 08:55:04;;;;;;;9.73;4.05;;;21.70;44.00;;;;;;7569168;23;79914;-65
2023/05/02 08:58:05;;;;;;;5.88;3.88;;;21.60;44.20;;;;;;7569201;23;81257;-66
2023/05/02 09:01:05;;;;;;;4.65;3.00;;;21.90;44.00;;;;;;7569386;23;80272;-67
2023/05/02 09:04:06;;;;;;;6.50;3.35;;;21.80;43.70;;;;;;7566136;23;80895;-65
2023/05/02 09:07:06;;;;;;;3.45;2.72;;;22.00;43.60;;;;;;7564191;23;80080;-68
2023/05/02 09:10:07;;;;;;;4.60;2.83;;;22.00;43.60;;;;;;7543440;23;80975;-71
2023/05/02 09:13:07;;;;;;;3.40;2.50;;;22.00;43.60;;;;;;7569457;23;80067;-61
2023/05/02 09:16:08;;;;;;;6.20;3.00;;;22.00;43.60;;;;;;7569151;23;81811;-61
2023/05/02 09:19:09;;;;;;;3.53;2.97;;;22.20;43.40;;;;;;7564976;23;80462;-61
2023/05/02 09:22:09;;;;;;;5.18;2.83;;;22.30;43.70;;;;;;7566071;23;81222;-61
2023/05/02 09:25:10;;;;;;;3.88;2.60;;;22.30;43.90;;;;;;7595654;23;80474;-59
2023/05/02 09:28:10;;;;;;;4.03;3.05;;;22.40;44.00;;;;;;7604921;23;80560;-59
2023/05/02 09:31:11;;;;;;;4.25;2.72;;;22.60;43.50;;;;;;7603886;23;80257;-59
2023/05/02 09:34:12;;;;;;;5.30;3.22;;;22.80;43.10;;;;;;7604786;23;80414;-62
2023/05/02 09:37:12;;;;;;;6.40;2.65;;;22.70;43.90;;;;;;7605817;23;80253;-62
2023/05/02 09:40:13;;;;;;;6.70;3.25;;;22.60;44.50;;;;;;7602877;23;81073;-63
2023/05/02 09:43:15;;;;;;;4.65;2.72;;;22.60;45.20;;;;;;7604888;23;81251;-63
2023/05/02 09:46:16;;;;;;;6.90;2.67;;;22.70;45.70;;;;;;7602697;23;81207;-61
2023/05/02 09:49:19;;;;;;;5.97;2.95;;;22.80;45.60;;;;;;7601430;23;81076;-52
2023/05/02 09:52:22;;;;;;;7.80;3.67;;;22.80;45.40;;;;;;7601265;23;80279;-53
2023/05/02 09:55:23;;;;;;;3.92;3.35;;;22.50;45.90;;;;;;7602414;23;80006;-58
2023/05/02 09:58:24;;;;;;;3.80;2.80;;;22.40;45.60;;;;;;7602375;23;81093;-58
2023/05/02 10:01:24;;;;;;;4.47;2.63;;;22.30;45.50;;;;;;7603511;23;80293;-59
2023/05/02 10:04:25;;;;;;;5.32;2.75;;;22.30;45.60;;;;;;7601430;23;80748;-58
2023/05/02 10:07:25;;;;;;;3.83;2.35;;;22.50;45.30;;;;;;7600836;23;81205;-60
2023/05/02 10:10:26;;;;;;;3.60;2.42;;;22.50;45.10;;;;;;7600136;23;80457;-59
2023/05/02 10:13:31;;;;;;;4.20;2.65;;;22.50;45.40;;;;;;7600628;23;80432;-60
2023/05/02 10:16:32;;;;;;;6.88;2.55;;;22.60;45.30;;;;;;7602239;23;80368;-59
2023/05/02 10:19:33;;;;;;;3.65;2.55;;;22.80;45.40;;;;;;7603288;23;80597;-59
2023/05/02 10:22:33;;;;;;;3.60;2.42;;;22.90;45.00;;;;;;7599766;23;80933;-58
2023/05/02 10:25:34;;;;;;;4.45;3.70;;;22.90;44.50;;;;;;7600356;23;80258;-59
2023/05/02 10:28:34;;;;;;;3.50;2.80;;;23.00;44.70;;;;;;7600051;23;80341;-59
2023/05/02 10:31:36;;;;;;;6.68;2.40;;;23.10;44.50;;;;;;7601387;23;80488;-59
2023/05/02 10:34:36;;;;;;;5.13;3.50;;;23.10;44.70;;;;;;7572511;23;82320;-59
2023/05/02 10:37:37;;;;;;;4.57;2.60;;;23.20;44.90;;;;;;7603051;23;81025;-59
2023/05/02 10:40:38;;;;;;;5.93;2.75;;;23.20;44.60;;;;;;7603504;23;80275;-59
2023/05/02 10:43:38;;;;;;;6.22;3.58;;;23.00;44.10;;;;;;7603291;23;80883;-60
2023/05/02 10:46:42;;;;;;;5.43;3.50;;;23.10;44.30;;;;;;7602105;23;80911;-59
2023/05/02 10:49:42;;;;;;;3.65;2.70;;;23.10;44.70;;;;;;7604002;23;80304;-60
2023/05/02 10:52:43;;;;;;;6.20;2.95;;;23.10;44.50;;;;;;7604685;23;80292;-60
2023/05/02 10:55:43;;;;;;;2.97;2.42;;;23.20;44.30;;;;;;7604128;23;80758;-60
2023/05/02 10:58:44;;;;;;;4.38;2.83;;;23.10;44.10;;;;;;7604092;23;81164;-60
2023/05/02 11:01:44;;;;;;;4.28;3.10;;;23.00;44.40;;;;;;7603642;23;80388;-59
2023/05/02 11:04:45;;;;;;;3.28;2.83;;;23.10;44.00;;;;;;7597218;23;80344;-58
2023/05/02 11:07:45;;;;;;;2.78;2.28;;;22.90;43.70;;;;;;7599152;23;80754;-59
2023/05/02 11:10:46;;;;;;;4.15;2.50;;;22.90;43.90;;;;;;7601365;23;80382;-59
2023/05/02 11:13:46;;;;;;;5.93;3.50;;;22.80;43.40;;;;;;7602671;23;80220;-59
2023/05/02 11:16:47;;;;;;;3.63;2.50;;;22.90;44.00;;;;;;7599541;23;80679;-58
2023/05/02 11:19:47;;;;;;;3.25;2.70;;;23.00;44.20;;;;;;7602861;23;81361;-60
2023/05/02 11:36:44;;;;;;;4.18;2.97;;;23.30;45.10;;;;;;7598647;22;81856;-70
2023/05/02 11:39:48;;;;;;;5.72;3.25;;;23.40;45.00;;;;;;7606880;23;80373;-58
2023/05/02 11:42:48;;;;;;;6.85;2.67;;;23.40;45.00;;;;;;7605726;23;80022;-57
2023/05/02 11:45:49;;;;;;;6.13;3.13;;;23.50;45.40;;;;;;7605549;23;80305;-58
2023/05/02 11:48:49;;;;;;;4.97;3.30;;;23.40;45.70;;;;;;7579067;23;80094;-58
2023/05/02 11:51:50;;;;;;;5.82;3.20;;;23.40;44.40;;;;;;7601068;23;80716;-56
2023/05/02 11:54:50;;;;;;;4.55;3.53;;;23.20;43.80;;;;;;7605880;23;80986;-60
2023/05/02 11:57:51;;;;;;;5.25;3.05;;;23.00;43.60;;;;;;7606419;23;80931;-64
2023/05/02 12:00:51;;;;;;;8.50;3.25;;;23.10;44.60;;;;;;7605895;23;80815;-63
2023/05/02 12:03:52;;;;;;;5.05;2.90;;;23.20;45.20;;;;;;7605094;23;80862;-63
2023/05/02 12:06:52;;;;;;;6.70;3.30;;;23.40;45.30;;;;;;7599191;23;80859;-64
2023/05/02 12:09:53;;;;;;;12.80;3.45;;;23.50;45.20;;;;;;7604631;23;80428;-65
2023/05/02 12:12:54;;;;;;;6.47;2.88;;;23.60;45.40;;;;;;7580374;23;80494;-64
2023/05/02 12:15:54;;;;;;;4.70;3.75;;;23.60;46.30;;;;;;7605457;23;80924;-67
2023/05/02 12:18:56;;;;;;;5.43;3.33;;;23.60;44.10;;;;;;7602568;23;80404;-59
2023/05/02 12:21:57;;;;;;;13.82;3.70;;;23.50;44.30;;;;;;7601893;23;80934;-59
2023/05/02 12:24:58;;;;;;;8.48;3.03;;;23.40;44.10;;;;;;7601748;23;80126;-59
2023/05/02 12:27:58;;;;;;;5.57;2.85;;;23.50;44.60;;;;;;7603466;23;80865;-59
2023/05/02 12:30:59;;;;;;;4.20;2.72;;;23.40;43.30;;;;;;7603389;23;80712;-55
2023/05/02 12:34:00;;;;;;;4.85;2.60;;;23.30;43.90;;;;;;7601888;23;80176;-58
2023/05/02 12:37:01;;;;;;;4.30;3.28;;;23.30;44.40;;;;;;7605373;23;80327;-65
2023/05/02 12:40:01;;;;;;;4.85;2.40;;;23.00;46.20;;;;;;7604889;23;80275;-63
2023/05/02 12:43:03;;;;;;;4.90;3.08;;;22.90;47.10;;;;;;7606354;23;81072;-65
2023/05/02 12:46:03;;;;;;;4.85;3.08;;;23.10;46.60;;;;;;7607103;23;80502;-63
2023/05/02 12:49:04;;;;;;;7.13;3.05;;;23.20;47.10;;;;;;7602592;23;81449;-63
2023/05/02 12:52:04;;;;;;;7.43;3.53;;;22.90;48.50;;;;;;7606351;23;80654;-62
2023/05/02 12:55:05;;;;;;;5.13;3.22;;;22.70;50.60;;;;;;7605239;23;81270;-65
2023/05/02 12:58:06;;;;;;;8.88;3.35;;;22.60;51.40;;;;;;7605443;23;80595;-63
2023/05/02 13:01:06;;;;;;;5.80;2.33;;;22.10;48.40;;;;;;7604616;23;80165;-66
2023/05/02 13:04:07;;;;;;;2.63;2.15;;;21.80;46.40;;;;;;7599956;23;80160;-63
2023/05/02 13:07:07;;;;;;;5.75;2.72;;;21.60;46.30;;;;;;7604954;23;80624;-63
2023/05/02 13:10:08;;;;;;;3.90;2.50;;;21.20;50.60;;;;;;7604491;23;80328;-66
2023/05/02 13:13:08;;;;;;;3.28;2.38;;;21.20;50.30;;;;;;7605894;23;87472;-70
2023/05/02 13:16:09;;;;;;;2.92;2.40;;;21.30;50.70;;;;;;7606562;23;81732;-67
2023/05/02 13:19:10;;;;;;;4.57;2.33;;;21.70;49.80;;;;;;7602566;23;80462;-63
2023/05/02 13:22:11;;;;;;;4.13;2.22;;;22.00;49.70;;;;;;7606597;23;80493;-64
2023/05/02 13:25:11;;;;;;;7.90;2.70;;;21.90;48.00;;;;;;7606555;23;81759;-68
2023/05/02 13:28:12;;;;;;;11.98;5.13;;;21.20;53.60;;;;;;7604725;23;80636;-69
2023/05/02 13:31:12;;;;;;;8.18;3.72;;;21.10;52.80;;;;;;7606608;23;80773;-67
2023/05/02 13:34:13;;;;;;;11.88;3.03;;;21.30;53.60;;;;;;7604057;23;81092;-66
2023/05/02 13:37:13;;;;;;;5.70;2.92;;;21.00;55.20;;;;;;7605469;23;80218;-66
2023/05/02 13:40:14;;;;;;;6.22;3.45;;;21.40;55.30;;;;;;7607273;23;80629;-65
2023/05/02 13:43:14;;;;;;;8.40;3.75;;;21.70;54.70;;;;;;7605982;23;80010;-64
2023/05/02 13:46:15;;;;;;;14.93;8.20;;;21.90;53.80;;;;;;7602531;23;80494;-62
2023/05/02 13:49:16;;;;;;;9.38;6.05;;;21.90;53.60;;;;;;7604881;23;81081;-63
2023/05/02 13:52:16;;;;;;;7.35;4.18;;;21.30;54.70;;;;;;7579476;23;81626;-63
2023/05/02 13:55:17;;;;;;;4.90;2.40;;;21.40;54.50;;;;;;7605140;23;81533;-64
2023/05/02 13:58:17;;;;;;;4.30;1.88;;;20.80;54.40;;;;;;7606806;23;81010;-63
2023/05/02 14:01:18;;;;;;;10.48;2.22;;;20.30;57.70;;;;;;7602051;23;80310;-64
2023/05/02 14:04:18;;;;;;;4.18;1.90;;;20.00;59.40;;;;;;7605245;23;80236;-62
2023/05/02 14:07:19;;;;;;;5.43;2.30;;;20.20;59.20;;;;;;7606745;23;80276;-64
2023/05/02 14:10:19;;;;;;;4.40;2.10;;;20.80;57.80;;;;;;7579705;23;80798;-66
2023/05/02 14:13:20;;;;;;;7.03;2.15;;;21.20;57.20;;;;;;7607212;23;80417;-65
2023/05/02 14:16:20;;;;;;;3.33;2.30;;;20.60;59.40;;;;;;7598549;23;80106;-65
2023/05/02 14:19:21;;;;;;;3.60;1.80;;;20.70;59.40;;;;;;7605658;23;80086;-64
2023/05/02 14:22:21;;;;;;;5.13;2.70;;;21.10;59.10;;;;;;7604997;23;80113;-61
2023/05/02 14:25:22;;;;;;;5.38;2.47;;;21.40;57.60;;;;;;7605166;23;80874;-65
2023/05/02 14:28:22;;;;;;;3.90;1.95;;;21.60;57.00;;;;;;7606301;23;80080;-61
2023/05/02 14:31:23;;;;;;;5.95;1.77;;;21.70;56.90;;;;;;7596030;23;80945;-60
2023/05/02 14:34:25;;;;;;;3.17;2.15;;;21.70;56.80;;;;;;7604846;23;81034;-62
2023/05/02 14:37:26;;;;;;;2.45;1.83;;;21.70;56.30;;;;;;7602486;23;80490;-64
2023/05/02 14:40:26;;;;;;;1.83;1.63;;;21.60;56.20;;;;;;7603950;23;80290;-65
2023/05/02 14:43:27;;;;;;;4.00;2.10;;;21.60;56.00;;;;;;7604680;23;82318;-64
2023/05/02 14:46:28;;;;;;;3.00;2.28;;;21.50;55.80;;;;;;7601351;23;80213;-62
2023/05/02 14:49:28;;;;;;;3.15;2.60;;;21.40;55.30;;;;;;7603579;23;80882;-63
2023/05/02 14:52:29;;;;;;;3.45;2.45;;;21.50;55.20;;;;;;7603240;23;80522;-63
2023/05/02 14:55:30;;;;;;;2.67;1.67;;;21.50;55.50;;;;;;7605054;23;81423;-63
2023/05/02 14:58:30;;;;;;;2.22;1.63;;;21.50;55.60;;;;;;7603018;23;80303;-62
2023/05/02 15:01:31;;;;;;;9.38;2.13;;;21.50;55.90;;;;;;7600413;23;80270;-64
2023/05/02 15:04:31;;;;;;;6.95;3.03;;;20.50;59.30;;;;;;7604691;23;81732;-65
2023/05/02 15:07:32;;;;;;;3.45;2.22;;;19.80;61.60;;;;;;7604952;23;80351;-65
2023/05/02 15:10:33;;;;;;;4.22;2.67;;;19.50;61.70;;;;;;7603509;23;80552;-68
2023/05/02 15:13:33;;;;;;;4.32;1.65;;;19.60;61.10;;;;;;7604756;23;81427;-64
2023/05/02 15:16:36;;;;;;;7.75;2.00;;;19.40;60.10;;;;;;7574403;23;81969;-62
2023/05/02 15:19:36;;;;;;;4.45;2.28;;;19.40;60.10;;;;;;7605856;23;80270;-65
2023/05/02 15:22:37;;;;;;;3.85;2.25;;;19.50;60.30;;;;;;7598391;23;80626;-59
2023/05/02 15:25:37;;;;;;;6.72;3.63;;;19.50;61.10;;;;;;7600286;23;80385;-58
2023/05/02 15:28:38;;;;;;;4.72;3.35;;;19.30;62.40;;;;;;7604092;23;80875;-58
2023/05/02 15:31:38;;;;;;;5.47;3.58;;;19.10;63.00;;;;;;7600365;23;80546;-60
2023/05/02 15:34:39;;;;;;;7.28;3.88;;;19.10;63.80;;;;;;7604010;23;80709;-59
2023/05/02 15:37:40;;;;;;;5.13;3.67;;;19.00;63.20;;;;;;7603869;23;81248;-59
2023/05/02 15:40:40;;;;;;;6.60;4.05;;;19.00;63.20;;;;;;7603658;23;80387;-58
2023/05/02 15:43:41;;;;;;;8.73;4.85;;;18.90;63.60;;;;;;7601963;23;80885;-60
2023/05/02 15:46:45;;;;;;;8.65;5.00;;;18.90;63.80;;;;;;7603315;23;80343;-60
2023/05/02 15:49:45;;;;;;;8.38;5.20;;;18.90;63.20;;;;;;7605756;23;80891;-58
2023/05/02 15:52:46;;;;;;;9.10;5.88;;;19.30;62.20;;;;;;7604745;23;82086;-59
2023/05/02 15:55:47;;;;;;;8.25;4.78;;;19.40;61.50;;;;;;7607058;23;80560;-59
2023/05/02 15:58:47;;;;;;;7.13;4.38;;;19.70;61.20;;;;;;7599629;23;80624;-53
2023/05/02 16:01:48;;;;;;;9.00;5.28;;;20.10;60.50;;;;;;7603061;23;80461;-59
2023/05/02 16:04:48;;;;;;;10.90;5.15;;;20.40;59.20;;;;;;7600368;23;80377;-58
2023/05/02 16:07:49;;;;;;;6.95;4.38;;;20.70;58.30;;;;;;7601926;23;80390;-59
2023/05/02 16:10:50;;;;;;;8.88;4.05;;;20.90;57.80;;;;;;7580132;23;82201;-55
2023/05/02 16:13:51;;;;;;;11.05;4.03;;;21.10;57.30;;;;;;7596873;23;80879;-54
2023/05/02 16:16:52;;;;;;;8.68;4.18;;;21.30;56.60;;;;;;7601007;23;81203;-67
2023/05/02 16:19:52;;;;;;;8.82;4.05;;;21.50;57.30;;;;;;7599744;23;80699;-68
2023/05/02 16:22:53;;;;;;;7.60;4.65;;;21.60;57.50;;;;;;7599746;23;80689;-64